Time;durP1;ratioP1;P1;durP2;ratioP2;P2;SDS_P1;SDS_P2;PMS_P1;PMS_P2;Temp;Humidity;BMP_temperature;BMP_pressure;BME280_temperature;BME280_humidity;BME280_pressure;Samples;Min_cycle;Max_cycle;Signal;HPM_P1;HPM_P2
2023/09/15 01:35:36;;;;;;;3.03;2.10;;;;;;;;;;5074442;22;20291;-85
2023/09/15 01:38:03;;;;;;;3.03;2.17;;;;;;;;;;4970336;28;20708;-86
2023/09/15 01:40:31;;;;;;;3.23;2.30;;;;;;;;;;4970037;28;20678;-86
2023/09/15 01:42:58;;;;;;;3.40;2.40;;;;;;;;;;4977603;28;20217;-86
2023/09/15 01:45:25;;;;;;;2.83;2.37;;;;;;;;;;4969988;28;20237;-86
2023/09/15 01:47:52;;;;;;;5.33;2.63;;;;;;;;;;4970666;28;20212;-86
2023/09/15 01:50:20;;;;;;;3.93;2.43;;;;;;;;;;4970310;28;20255;-86
2023/09/15 01:52:48;;;;;;;3.23;2.17;;;;;;;;;;4970427;28;20212;-85
2023/09/15 01:55:15;;;;;;;4.30;2.70;;;;;;;;;;4970017;28;20240;-86
2023/09/15 01:57:42;;;;;;;5.13;2.27;;;;;;;;;;4970445;28;20213;-86
2023/09/15 02:00:10;;;;;;;2.30;2.10;;;;;;;;;;4970035;28;20236;-86
2023/09/15 02:02:37;;;;;;;2.23;2.10;;;;;;;;;;4976772;28;20208;-86
2023/09/15 02:05:05;;;;;;;2.10;1.90;;;;;;;;;;4970252;28;20231;-85
2023/09/15 02:07:32;;;;;;;5.77;2.17;;;;;;;;;;4970521;28;20205;-86
2023/09/15 02:10:00;;;;;;;4.40;2.30;;;;;;;;;;4969992;28;20228;-85
2023/09/15 02:12:27;;;;;;;5.37;2.43;;;;;;;;;;4973771;28;20217;-85
2023/09/15 02:14:54;;;;;;;4.67;2.13;;;;;;;;;;4979248;28;20314;-86
2023/09/15 02:17:21;;;;;;;3.47;2.40;;;;;;;;;;4971337;28;20231;-85
2023/09/15 02:19:49;;;;;;;2.80;2.57;;;;;;;;;;4973786;28;20273;-85
2023/09/15 02:22:16;;;;;;;2.30;2.10;;;;;;;;;;4977118;28;20205;-86
2023/09/15 02:24:43;;;;;;;2.83;2.03;;;;;;;;;;4978317;28;20230;-86
2023/09/15 02:27:12;;;;;;;2.57;2.10;;;;;;;;;;4974648;28;20732;-86
2023/09/15 02:29:39;;;;;;;4.27;2.53;;;;;;;;;;4976944;28;20603;-86
2023/09/15 02:32:06;;;;;;;2.60;2.40;;;;;;;;;;4975831;28;20638;-86
2023/09/15 02:34:33;;;;;;;2.47;2.20;;;;;;;;;;4973860;28;20236;-85
2023/09/15 02:37:00;;;;;;;3.53;2.20;;;;;;;;;;4973145;28;20310;-86
2023/09/15 02:39:27;;;;;;;2.57;2.37;;;;;;;;;;4973231;28;20240;-86
2023/09/15 02:41:54;;;;;;;2.67;2.47;;;;;;;;;;4972986;28;20213;-86
2023/09/15 02:44:23;;;;;;;4.00;2.30;;;;;;;;;;4975177;28;20208;-85
2023/09/15 02:46:50;;;;;;;3.57;2.23;;;;;;;;;;4972769;28;20232;-86
2023/09/15 02:49:17;;;;;;;2.80;2.23;;;;;;;;;;4975528;28;20295;-86
2023/09/15 02:51:45;;;;;;;2.10;2.00;;;;;;;;;;4983204;28;20209;-86
2023/09/15 02:54:12;;;;;;;3.57;2.27;;;;;;;;;;4973151;28;20216;-86
2023/09/15 02:56:39;;;;;;;2.63;2.10;;;;;;;;;;4972930;28;20240;-85
2023/09/15 02:59:06;;;;;;;4.43;2.60;;;;;;;;;;4972825;28;20225;-86
2023/09/15 03:01:36;;;;;;;3.20;2.33;;;;;;;;;;4975682;28;20229;-85
2023/09/15 03:04:03;;;;;;;3.27;2.33;;;;;;;;;;4978513;28;20213;-86
2023/09/15 03:06:30;;;;;;;6.10;2.20;;;;;;;;;;4976540;28;20235;-86
2023/09/15 03:08:58;;;;;;;3.80;2.73;;;;;;;;;;4977701;28;20217;-86
2023/09/15 03:11:25;;;;;;;3.27;2.70;;;;;;;;;;4973690;28;20232;-86
2023/09/15 03:13:52;;;;;;;3.67;2.40;;;;;;;;;;4975329;28;20208;-85
2023/09/15 03:16:20;;;;;;;2.40;2.30;;;;;;;;;;4975338;28;20260;-86
2023/09/15 03:18:50;;;;;;;3.00;2.10;;;;;;;;;;4981213;28;20267;-86
2023/09/15 03:21:17;;;;;;;1.97;1.80;;;;;;;;;;4972366;28;20324;-86
2023/09/15 03:23:44;;;;;;;2.67;2.40;;;;;;;;;;4977686;28;20213;-86
2023/09/15 03:26:12;;;;;;;2.77;2.10;;;;;;;;;;4972287;28;20382;-86
2023/09/15 03:28:40;;;;;;;2.40;2.00;;;;;;;;;;4977322;28;20213;-85
2023/09/15 03:31:08;;;;;;;5.77;2.43;;;;;;;;;;4995225;28;20240;-86
2023/09/15 03:33:35;;;;;;;4.40;2.03;;;;;;;;;;4972763;28;20280;-87
2023/09/15 03:36:04;;;;;;;2.20;2.00;;;;;;;;;;4984704;28;20727;-86
2023/09/15 03:38:31;;;;;;;2.97;2.23;;;;;;;;;;4976067;28;20207;-86
2023/09/15 03:40:59;;;;;;;2.30;2.10;;;;;;;;;;4972466;28;20264;-86
2023/09/15 03:43:26;;;;;;;2.47;1.93;;;;;;;;;;4972382;28;20208;-86
2023/09/15 03:45:54;;;;;;;3.77;2.50;;;;;;;;;;4974640;28;20227;-86
2023/09/15 03:48:21;;;;;;;6.47;2.10;;;;;;;;;;4972811;28;20271;-86
2023/09/15 03:50:48;;;;;;;3.67;2.43;;;;;;;;;;4972168;28;20302;-86
2023/09/15 03:53:17;;;;;;;9.63;2.10;;;;;;;;;;4974154;28;20689;-85
2023/09/15 03:55:44;;;;;;;3.67;2.20;;;;;;;;;;4971568;28;20233;-86
2023/09/15 03:58:11;;;;;;;2.20;2.10;;;;;;;;;;4972154;28;20579;-85
2023/09/15 04:00:38;;;;;;;2.53;2.33;;;;;;;;;;4971424;28;20236;-87
2023/09/15 04:03:05;;;;;;;2.07;1.97;;;;;;;;;;4972689;28;20916;-88
2023/09/15 04:05:32;;;;;;;6.43;2.60;;;;;;;;;;4972253;28;20247;-87
2023/09/15 04:07:59;;;;;;;5.23;2.33;;;;;;;;;;4972145;28;20204;-85
2023/09/15 04:10:28;;;;;;;3.00;2.17;;;;;;;;;;4971471;28;20601;-86
2023/09/15 04:12:55;;;;;;;2.47;2.20;;;;;;;;;;4972202;28;20212;-85
2023/09/15 04:15:22;;;;;;;3.87;2.17;;;;;;;;;;4971668;28;20232;-86
2023/09/15 04:17:49;;;;;;;3.70;2.23;;;;;;;;;;4972027;28;20705;-86
2023/09/15 04:20:16;;;;;;;3.40;2.07;;;;;;;;;;4972121;28;20245;-87
2023/09/15 04:22:43;;;;;;;2.00;1.90;;;;;;;;;;4972594;28;20205;-87
2023/09/15 04:25:11;;;;;;;4.37;2.50;;;;;;;;;;4972080;28;20236;-87
2023/09/15 04:27:40;;;;;;;3.00;2.20;;;;;;;;;;4978468;28;20209;-88
2023/09/15 04:30:07;;;;;;;2.07;1.97;;;;;;;;;;4972501;28;20370;-88
2023/09/15 04:32:35;;;;;;;2.50;2.30;;;;;;;;;;4969252;28;20585;-87
2023/09/15 04:35:03;;;;;;;3.33;2.27;;;;;;;;;;4972058;28;20232;-87
2023/09/15 04:37:31;;;;;;;4.33;2.47;;;;;;;;;;4972589;28;20221;-86
2023/09/15 04:39:58;;;;;;;7.00;2.17;;;;;;;;;;4971925;28;20244;-86
2023/09/15 04:42:25;;;;;;;3.17;2.10;;;;;;;;;;4972570;28;20220;-86
2023/09/15 04:44:54;;;;;;;3.33;2.40;;;;;;;;;;4971870;28;20260;-87
2023/09/15 04:47:30;;;;;;;4.10;2.20;;;;;;;;;;4976499;28;20701;-87
2023/09/15 04:49:57;;;;;;;2.57;2.30;;;;;;;;;;4974011;28;20236;-87
2023/09/15 04:52:24;;;;;;;2.57;1.97;;;;;;;;;;4972646;28;20209;-87
2023/09/15 04:54:52;;;;;;;3.40;2.00;;;;;;;;;;4972141;28;20243;-87
2023/09/15 04:57:19;;;;;;;2.50;2.10;;;;;;;;;;4972444;28;20326;-87
2023/09/15 04:59:47;;;;;;;5.60;2.23;;;;;;;;;;4972086;28;20289;-87
2023/09/15 05:02:16;;;;;;;2.87;2.53;;;;;;;;;;4972867;28;20212;-87
2023/09/15 05:04:43;;;;;;;5.03;2.30;;;;;;;;;;4972446;28;20266;-87
2023/09/15 05:07:10;;;;;;;2.50;2.30;;;;;;;;;;4964385;28;20229;-87
2023/09/15 05:09:37;;;;;;;3.90;2.07;;;;;;;;;;4972008;28;20228;-89
2023/09/15 05:12:05;;;;;;;2.93;1.90;;;;;;;;;;4972607;28;20750;-88
2023/09/15 05:14:32;;;;;;;5.73;2.43;;;;;;;;;;4971639;28;20754;-86
2023/09/15 05:16:59;;;;;;;7.50;2.27;;;;;;;;;;4972464;28;20237;-87
2023/09/15 05:19:28;;;;;;;2.40;2.20;;;;;;;;;;4971978;28;20231;-88
2023/09/15 05:21:55;;;;;;;4.93;2.37;;;;;;;;;;4973813;28;20216;-88
2023/09/15 05:24:22;;;;;;;2.37;2.17;;;;;;;;;;4972815;28;20208;-87
2023/09/15 05:26:59;;;;;;;3.70;2.23;;;;;;;;;;4972960;28;20228;-87
2023/09/15 05:29:26;;;;;;;3.17;2.20;;;;;;;;;;4990537;28;20197;-87
2023/09/15 05:31:53;;;;;;;4.57;2.60;;;;;;;;;;4981432;28;20204;-87
2023/09/15 05:34:20;;;;;;;3.33;2.60;;;;;;;;;;4976967;28;20209;-88
2023/09/15 05:36:48;;;;;;;4.80;2.43;;;;;;;;;;4973460;28;20229;-86
2023/09/15 05:39:15;;;;;;;3.23;2.20;;;;;;;;;;4971655;28;20224;-87
2023/09/15 05:41:42;;;;;;;3.07;2.50;;;;;;;;;;4972439;28;20205;-87
2023/09/15 05:44:09;;;;;;;3.97;2.50;;;;;;;;;;4971521;28;20214;-87
2023/09/15 05:46:37;;;;;;;7.10;3.00;;;;;;;;;;4967863;28;20237;-89
2023/09/15 05:49:04;;;;;;;8.30;2.70;;;;;;;;;;4972521;28;20635;-89
2023/09/15 05:51:40;;;;;;;4.83;2.57;;;;;;;;;;4974637;28;20259;-89
2023/09/15 05:54:08;;;;;;;5.07;2.50;;;;;;;;;;4972583;28;20211;-89
2023/09/15 05:56:35;;;;;;;3.33;2.77;;;;;;;;;;4971617;28;20236;-89
2023/09/15 05:59:04;;;;;;;4.60;3.00;;;;;;;;;;4972678;28;20208;-88
2023/09/15 06:01:31;;;;;;;6.93;3.67;;;;;;;;;;4970621;28;20229;-88
2023/09/15 06:03:59;;;;;;;4.87;3.20;;;;;;;;;;4979283;28;20224;-88
2023/09/15 06:06:34;;;;;;;5.77;3.10;;;;;;;;;;4979005;28;20331;-88
2023/09/15 06:09:01;;;;;;;5.93;3.40;;;;;;;;;;4980646;28;20283;-88
2023/09/15 06:11:29;;;;;;;5.53;3.27;;;;;;;;;;4979591;28;20230;-88
2023/09/15 06:13:56;;;;;;;8.50;3.57;;;;;;;;;;4976342;28;20201;-89
2023/09/15 06:16:23;;;;;;;6.67;3.33;;;;;;;;;;4974377;28;20323;-88
2023/09/15 06:18:58;;;;;;;4.70;4.00;;;;;;;;;;4972226;28;20209;-88
2023/09/15 06:21:25;;;;;;;8.97;4.10;;;;;;;;;;4975166;28;20232;-88
2023/09/15 06:23:52;;;;;;;7.20;4.60;;;;;;;;;;4975557;28;20208;-88
2023/09/15 06:26:19;;;;;;;5.70;4.60;;;;;;;;;;4975617;28;20232;-88
2023/09/15 06:28:48;;;;;;;6.60;4.43;;;;;;;;;;4975537;28;20209;-88
2023/09/15 06:31:15;;;;;;;6.87;4.90;;;;;;;;;;4974870;28;20237;-88
2023/09/15 06:33:42;;;;;;;6.03;5.00;;;;;;;;;;4990153;28;20215;-88
2023/09/15 06:36:09;;;;;;;8.13;5.80;;;;;;;;;;4987884;28;21701;-88
2023/09/15 06:38:36;;;;;;;9.17;6.10;;;;;;;;;;4984514;28;20209;-88
2023/09/15 06:41:04;;;;;;;8.73;5.30;;;;;;;;;;4982931;28;20232;-88
2023/09/15 06:43:31;;;;;;;10.63;6.60;;;;;;;;;;4993333;28;20235;-88
2023/09/15 06:45:59;;;;;;;11.30;5.90;;;;;;;;;;4992773;28;20237;-87
2023/09/15 06:48:26;;;;;;;9.43;6.30;;;;;;;;;;4993959;28;20193;-88
2023/09/15 06:50:53;;;;;;;10.23;6.30;;;;;;;;;;4982907;28;20237;-88
2023/09/15 06:53:23;;;;;;;9.33;6.83;;;;;;;;;;4975404;28;20193;-88
2023/09/15 06:55:50;;;;;;;9.50;6.90;;;;;;;;;;4974551;28;20245;-88
2023/09/15 06:58:17;;;;;;;9.93;8.00;;;;;;;;;;4975003;28;20212;-88
2023/09/15 07:00:44;;;;;;;12.90;8.00;;;;;;;;;;4974129;28;20232;-87
2023/09/15 07:03:13;;;;;;;10.27;7.73;;;;;;;;;;4975208;28;20262;-89
2023/09/15 07:05:41;;;;;;;10.13;7.30;;;;;;;;;;4974808;28;20241;-88
2023/09/15 07:08:08;;;;;;;11.40;7.97;;;;;;;;;;4983031;28;20208;-88
2023/09/15 07:10:36;;;;;;;13.80;7.40;;;;;;;;;;4975072;28;20343;-87
2023/09/15 07:13:03;;;;;;;14.83;7.17;;;;;;;;;;4974548;28;20201;-87
2023/09/15 07:15:34;;;;;;;10.50;7.67;;;;;;;;;;4974102;28;20244;-88
2023/09/15 07:18:01;;;;;;;9.27;7.40;;;;;;;;;;4987080;28;20220;-88
2023/09/15 07:20:30;;;;;;;15.57;8.20;;;;;;;;;;4974269;28;20253;-88
2023/09/15 07:22:57;;;;;;;12.10;8.07;;;;;;;;;;4974565;28;20216;-88
2023/09/15 07:25:24;;;;;;;10.10;7.37;;;;;;;;;;4986272;28;20240;-88
2023/09/15 07:27:52;;;;;;;14.60;7.60;;;;;;;;;;5018684;28;20212;-88
2023/09/15 07:30:19;;;;;;;10.80;7.60;;;;;;;;;;4967052;28;20251;-88
2023/09/15 07:32:46;;;;;;;10.60;7.07;;;;;;;;;;4980593;28;20299;-88
2023/09/15 07:35:14;;;;;;;9.47;6.97;;;;;;;;;;4973770;28;20237;-87
2023/09/15 07:37:42;;;;;;;9.47;7.03;;;;;;;;;;5031877;23;20282;-89
2023/09/15 07:40:10;;;;;;;10.77;7.77;;;;;;;;;;5034025;28;20241;-89
2023/09/15 07:42:37;;;;;;;11.03;7.87;;;;;;;;;;5018038;28;20658;-89
2023/09/15 07:45:05;;;;;;;9.30;7.67;;;;;;;;;;5024590;28;20232;-90
2023/09/15 07:47:33;;;;;;;9.90;7.00;;;;;;;;;;4986237;28;20228;-90
2023/09/15 07:50:00;;;;;;;8.77;6.50;;;;;;;;;;5032020;28;20643;-90
2023/09/15 07:52:29;;;;;;;9.90;7.27;;;;;;;;;;5008098;28;20220;-90
2023/09/15 07:54:57;;;;;;;9.37;6.97;;;;;;;;;;5059959;28;20249;-87
2023/09/15 07:57:24;;;;;;;7.53;6.73;;;;;;;;;;5013647;28;20217;-88
2023/09/15 07:59:52;;;;;;;7.97;6.30;;;;;;;;;;4990433;28;20236;-89
2023/09/15 08:02:20;;;;;;;6.87;5.87;;;;;;;;;;4995400;28;20211;-88
2023/09/15 08:04:48;;;;;;;7.87;5.77;;;;;;;;;;4980057;28;20262;-89
2023/09/15 08:07:15;;;;;;;5.90;5.30;;;;;;;;;;4974579;28;20232;-90
2023/09/15 08:09:42;;;;;;;8.67;6.20;;;;;;;;;;5019026;28;20225;-89
2023/09/15 08:12:10;;;;;;;6.87;5.73;;;;;;;;;;5076649;28;20205;-89
2023/09/15 08:14:37;;;;;;;6.03;5.43;;;;;;;;;;5011288;28;20227;-89
2023/09/15 08:17:05;;;;;;;6.33;5.60;;;;;;;;;;5019970;28;20221;-90
2023/09/15 08:19:32;;;;;;;6.03;5.43;;;;;;;;;;4975919;28;20240;-89
2023/09/15 08:22:00;;;;;;;6.27;5.30;;;;;;;;;;4978000;28;20244;-90
2023/09/15 08:24:27;;;;;;;6.30;5.10;;;;;;;;;;5059271;28;20234;-90
2023/09/15 08:26:54;;;;;;;7.07;5.50;;;;;;;;;;4995685;28;20220;-90
2023/09/15 08:29:23;;;;;;;8.73;5.40;;;;;;;;;;4972817;28;20202;-90
2023/09/15 08:31:50;;;;;;;6.10;5.23;;;;;;;;;;5001741;28;20203;-90
2023/09/15 08:34:17;;;;;;;8.33;5.10;;;;;;;;;;4996693;28;20823;-92
2023/09/15 08:36:44;;;;;;;5.80;5.20;;;;;;;;;;4978856;28;20271;-92
2023/09/15 08:39:12;;;;;;;5.53;4.72;;;;;;;;;;4978876;28;20254;-90
2023/09/15 08:41:41;;;;;;;9.07;4.72;;;;;;;;;;4980394;28;20235;-94
2023/09/15 08:44:09;;;;;;;5.15;4.65;;;;;;;;;;4980356;28;20197;-95
2023/09/15 08:46:39;;;;;;;5.10;4.55;;;;;;;;;;4979706;28;20256;-94
2023/09/15 08:49:08;;;;;;;5.15;4.35;;;;;;;;;;4979642;28;20880;-93
2023/09/15 08:51:35;;;;;;;5.80;4.38;;;;;;;;;;4980547;28;20786;-94
2023/09/15 08:54:05;;;;;;;5.03;4.22;;;;;;;;;;5022761;28;20220;-90
2023/09/15 08:56:33;;;;;;;6.82;4.30;;;;;;;;;;5076401;28;20239;-91
2023/09/15 08:59:04;;;;;;;4.55;4.15;;;;;;;;;;5076897;28;20292;-92
2023/09/15 09:01:32;;;;;;;4.53;3.92;;;;;;;;;;5055871;28;20240;-91
2023/09/15 09:04:01;;;;;;;4.60;4.10;;;;;;;;;;4986553;28;20193;-92
2023/09/15 09:06:46;;;;;;;4.30;3.90;;;;;;;;;;4982253;28;20228;-92
2023/09/15 09:12:28;;;;;;;5.32;4.22;;;;;;;;;;4988387;28;20201;-93
2023/09/15 09:14:59;;;;;;;4.20;3.50;;;;;;;;;;5006410;28;20740;-92
2023/09/15 09:20:50;;;;;;;6.72;3.92;;;;;;;;;;4963656;28;20237;-93
2023/09/15 09:23:19;;;;;;;4.10;3.40;;;;;;;;;;4967127;28;20258;-94
2023/09/15 09:25:49;;;;;;;4.40;3.72;;;;;;;;;;4977570;28;20618;-92
2023/09/15 09:28:19;;;;;;;4.30;3.60;;;;;;;;;;5032085;28;20244;-91
2023/09/15 09:30:50;;;;;;;3.47;3.17;;;;;;;;;;5038382;28;20277;-93
2023/09/15 09:33:41;;;;;;;4.60;3.45;;;;;;;;;;4994596;28;20216;-93
2023/09/15 09:36:14;;;;;;;3.75;3.40;;;;;;;;;;5006021;28;20706;-93
2023/09/15 09:38:42;;;;;;;4.40;3.47;;;;;;;;;;4984916;28;20285;-93
2023/09/15 09:41:11;;;;;;;5.05;3.40;;;;;;;;;;4975081;28;21041;-93
2023/09/15 09:43:42;;;;;;;3.60;2.95;;;;;;;;;;4975563;28;20666;-95
2023/09/15 09:46:10;;;;;;;3.63;3.33;;;;;;;;;;4976663;28;20710;-93
2023/09/15 09:48:38;;;;;;;4.07;3.67;;;;;;;;;;5018534;28;20229;-93
2023/09/15 09:51:06;;;;;;;5.10;3.10;;;;;;;;;;5017638;28;20251;-94
2023/09/15 09:53:36;;;;;;;3.10;2.83;;;;;;;;;;5055842;28;20216;-93
2023/09/15 09:56:11;;;;;;;3.63;2.90;;;;;;;;;;4976011;28;20237;-95
2023/09/15 09:58:39;;;;;;;3.67;2.78;;;;;;;;;;4976431;28;20242;-94
2023/09/15 10:01:16;;;;;;;3.35;3.05;;;;;;;;;;4984011;28;20223;-94
2023/09/15 10:03:45;;;;;;;2.92;2.72;;;;;;;;;;4995856;28;20223;-95
2023/09/15 10:06:16;;;;;;;3.03;2.83;;;;;;;;;;4977538;28;20235;-93
2023/09/15 10:08:46;;;;;;;2.45;2.25;;;;;;;;;;4976404;28;20220;-94
2023/09/15 10:11:13;;;;;;;3.53;2.75;;;;;;;;;;4986279;28;20250;-93
2023/09/15 10:13:41;;;;;;;3.00;2.70;;;;;;;;;;4995931;28;20209;-94
2023/09/15 10:16:08;;;;;;;3.10;2.38;;;;;;;;;;5067328;28;20229;-95
2023/09/15 10:18:35;;;;;;;3.15;2.67;;;;;;;;;;5077817;28;20221;-95
2023/09/15 10:21:03;;;;;;;3.00;2.45;;;;;;;;;;5077095;28;20324;-93
2023/09/15 10:23:31;;;;;;;2.47;2.28;;;;;;;;;;5058589;28;20239;-94
2023/09/15 10:26:00;;;;;;;2.95;2.40;;;;;;;;;;4976138;28;20248;-95
2023/09/15 10:28:27;;;;;;;3.08;2.42;;;;;;;;;;4977473;28;20240;-95
2023/09/15 10:30:55;;;;;;;2.60;2.40;;;;;;;;;;4976515;28;20279;-93
2023/09/15 10:33:23;;;;;;;7.68;2.70;;;;;;;;;;4989854;28;20201;-94
2023/09/15 10:35:51;;;;;;;3.42;2.50;;;;;;;;;;5078191;28;20229;-94
2023/09/15 10:38:27;;;;;;;2.85;2.30;;;;;;;;;;5078655;28;20232;-95
2023/09/15 10:40:54;;;;;;;2.45;2.30;;;;;;;;;;5078532;28;20239;-95
2023/09/15 10:43:23;;;;;;;2.58;2.38;;;;;;;;;;5080306;28;20245;-94
2023/09/15 10:45:57;;;;;;;2.50;2.30;;;;;;;;;;5047443;28;20272;-94
2023/09/15 10:48:25;;;;;;;2.45;2.25;;;;;;;;;;4980388;28;20277;-94
2023/09/15 10:50:53;;;;;;;2.40;2.20;;;;;;;;;;4996787;28;20224;-95
2023/09/15 10:53:20;;;;;;;2.38;2.20;;;;;;;;;;4980253;28;20225;-95
2023/09/15 10:55:47;;;;;;;2.03;1.92;;;;;;;;;;4980194;28;20224;-96
2023/09/15 10:58:16;;;;;;;2.53;1.98;;;;;;;;;;4980279;28;20244;-96
2023/09/15 11:00:46;;;;;;;3.75;2.17;;;;;;;;;;4979426;28;20233;-96
2023/09/15 11:03:14;;;;;;;2.45;2.10;;;;;;;;;;4981029;28;20208;-95
2023/09/15 11:05:40;;;;;;;4.55;2.05;;;;;;;;;;4980471;28;20240;-96
2023/09/15 11:08:08;;;;;;;1.98;1.88;;;;;;;;;;4980419;28;20763;-96
2023/09/15 11:10:36;;;;;;;2.00;1.90;;;;;;;;;;4980908;28;20248;-96
2023/09/15 11:13:04;;;;;;;2.17;1.98;;;;;;;;;;4980371;28;20259;-95
2023/09/15 11:15:33;;;;;;;2.65;2.17;;;;;;;;;;4979809;28;20243;-96
2023/09/15 11:18:01;;;;;;;2.00;1.90;;;;;;;;;;4981365;28;20230;-95
2023/09/15 11:20:28;;;;;;;1.77;1.67;;;;;;;;;;4981273;28;20752;-95
2023/09/15 11:22:57;;;;;;;3.85;2.17;;;;;;;;;;4981225;28;20296;-96
2023/09/15 11:25:25;;;;;;;3.80;2.17;;;;;;;;;;4981987;28;20290;-96
2023/09/15 11:28:00;;;;;;;3.03;1.90;;;;;;;;;;4982376;28;20305;-95
2023/09/15 11:30:27;;;;;;;2.15;1.95;;;;;;;;;;4980814;28;20229;-95
2023/09/15 11:32:58;;;;;;;1.88;1.77;;;;;;;;;;4982460;28;20200;-96
2023/09/15 11:35:41;;;;;;;2.20;2.03;;;;;;;;;;4982459;28;20251;-96
2023/09/15 11:38:11;;;;;;;1.70;1.60;;;;;;;;;;4981107;28;20587;-96
2023/09/15 11:40:47;;;;;;;1.92;1.80;;;;;;;;;;4983809;28;20232;-96
2023/09/15 11:43:14;;;;;;;1.75;1.65;;;;;;;;;;4985705;28;20253;-95
2023/09/15 11:45:42;;;;;;;2.30;1.80;;;;;;;;;;4980777;28;20320;-96
2023/09/15 11:48:10;;;;;;;1.90;1.80;;;;;;;;;;4978983;28;20660;-95
2023/09/15 11:50:38;;;;;;;2.28;1.70;;;;;;;;;;4978907;28;20263;-95
2023/09/15 11:53:07;;;;;;;1.95;1.85;;;;;;;;;;4980942;28;20200;-96
2023/09/15 11:55:36;;;;;;;2.05;1.85;;;;;;;;;;4981390;28;20266;-96
2023/09/15 11:58:04;;;;;;;2.20;2.00;;;;;;;;;;4981381;28;20223;-95
2023/09/15 12:00:32;;;;;;;1.90;1.80;;;;;;;;;;4978199;28;20324;-94
2023/09/15 12:03:03;;;;;;;1.75;1.60;;;;;;;;;;5012789;28;20236;-93
2023/09/15 12:05:30;;;;;;;2.20;2.00;;;;;;;;;;5077117;28;20256;-91
2023/09/15 12:07:59;;;;;;;2.90;1.80;;;;;;;;;;5078793;28;20221;-93
2023/09/15 12:10:26;;;;;;;3.20;1.77;;;;;;;;;;5077223;28;20239;-93
2023/09/15 12:12:58;;;;;;;3.08;1.75;;;;;;;;;;5078925;28;20574;-94
2023/09/15 12:15:28;;;;;;;2.00;1.75;;;;;;;;;;5078076;28;20241;-96
2023/09/15 12:17:57;;;;;;;4.47;2.20;;;;;;;;;;5079358;28;20224;-94
2023/09/15 12:20:39;;;;;;;3.72;3.05;;;;;;;;;;5078171;28;20263;-96
2023/09/15 12:23:11;;;;;;;1.77;1.67;;;;;;;;;;5083162;28;20225;-92
2023/09/15 12:25:40;;;;;;;2.55;1.98;;;;;;;;;;5078334;28;20256;-94
2023/09/15 12:28:08;;;;;;;2.40;1.70;;;;;;;;;;5078690;28;20856;-94
2023/09/15 12:30:42;;;;;;;3.47;1.88;;;;;;;;;;5076720;28;20225;-93
2023/09/15 12:33:12;;;;;;;3.78;2.10;;;;;;;;;;5077968;28;20239;-95
2023/09/15 12:35:45;;;;;;;2.13;1.80;;;;;;;;;;5086809;28;20699;-96
2023/09/15 12:38:12;;;;;;;1.70;1.60;;;;;;;;;;5085586;28;20325;-96
2023/09/15 12:40:40;;;;;;;1.80;1.70;;;;;;;;;;5087720;28;20233;-91
2023/09/15 12:43:08;;;;;;;2.28;1.77;;;;;;;;;;5085686;28;20225;-95
2023/09/15 12:45:36;;;;;;;1.70;1.60;;;;;;;;;;5028779;28;20240;-96
2023/09/15 12:48:03;;;;;;;1.98;1.42;;;;;;;;;;4985847;28;20229;-96
2023/09/15 12:50:35;;;;;;;1.65;1.48;;;;;;;;;;4979025;28;20745;-95
2023/09/15 12:53:02;;;;;;;1.50;1.40;;;;;;;;;;4990430;28;20239;-95
2023/09/15 12:55:30;;;;;;;1.83;1.65;;;;;;;;;;4983637;28;20247;-95
2023/09/15 12:57:57;;;;;;;2.22;1.70;;;;;;;;;;4982149;28;20224;-92
2023/09/15 13:00:25;;;;;;;1.85;1.75;;;;;;;;;;4975502;28;20233;-92
2023/09/15 13:02:53;;;;;;;2.03;1.70;;;;;;;;;;4990634;28;20240;-93
2023/09/15 13:05:22;;;;;;;1.40;1.30;;;;;;;;;;4997007;28;20700;-94
2023/09/15 13:07:55;;;;;;;1.50;1.40;;;;;;;;;;4998274;28;20220;-94
2023/09/15 13:10:22;;;;;;;1.50;1.40;;;;;;;;;;4996654;28;20231;-95
2023/09/15 13:12:50;;;;;;;5.70;1.65;;;;;;;;;;4999742;28;20210;-94
2023/09/15 13:15:21;;;;;;;1.60;1.50;;;;;;;;;;5002204;28;20236;-91
2023/09/15 13:17:50;;;;;;;3.28;1.70;;;;;;;;;;5002706;28;20239;-92
2023/09/15 13:20:18;;;;;;;2.13;1.80;;;;;;;;;;5000227;28;20232;-94
2023/09/15 13:22:46;;;;;;;1.80;1.70;;;;;;;;;;5004794;28;20236;-93
2023/09/15 13:25:13;;;;;;;1.73;1.52;;;;;;;;;;4999374;28;20238;-91
2023/09/15 13:27:42;;;;;;;1.45;1.42;;;;;;;;;;4991607;28;20215;-89
2023/09/15 13:30:10;;;;;;;4.45;1.50;;;;;;;;;;4974029;28;20232;-91
2023/09/15 13:32:38;;;;;;;3.58;1.60;;;;;;;;;;4973895;28;20292;-91
2023/09/15 13:35:07;;;;;;;1.60;1.50;;;;;;;;;;4973250;28;20228;-90
2023/09/15 13:37:37;;;;;;;3.55;1.65;;;;;;;;;;4969464;28;20248;-89
2023/09/15 13:40:04;;;;;;;1.73;1.63;;;;;;;;;;4972736;28;20232;-88
2023/09/15 13:42:32;;;;;;;1.80;1.70;;;;;;;;;;4972960;28;20233;-89
2023/09/15 13:45:00;;;;;;;2.05;1.95;;;;;;;;;;4972666;28;20236;-89
2023/09/15 13:47:28;;;;;;;3.25;1.50;;;;;;;;;;4975076;28;20270;-88
2023/09/15 13:49:55;;;;;;;1.42;1.33;;;;;;;;;;5049566;28;20228;-89
2023/09/15 13:52:24;;;;;;;3.72;1.60;;;;;;;;;;5074762;28;20200;-89
2023/09/15 13:54:52;;;;;;;1.40;1.30;;;;;;;;;;5048261;28;20233;-88
2023/09/15 13:57:20;;;;;;;1.50;1.40;;;;;;;;;;4973256;28;20236;-88
2023/09/15 13:59:47;;;;;;;1.33;1.23;;;;;;;;;;4995064;28;20298;-89
2023/09/15 14:02:15;;;;;;;1.70;1.60;;;;;;;;;;5074692;28;20228;-88
2023/09/15 14:04:43;;;;;;;1.63;1.40;;;;;;;;;;5073650;28;20232;-87
2023/09/15 14:07:10;;;;;;;1.70;1.60;;;;;;;;;;5001513;28;20223;-87
2023/09/15 14:09:38;;;;;;;1.83;1.67;;;;;;;;;;4991430;28;20247;-88
2023/09/15 14:12:06;;;;;;;3.40;1.70;;;;;;;;;;4992358;28;20261;-87
2023/09/15 14:14:33;;;;;;;1.73;1.60;;;;;;;;;;4991728;28;20232;-87
2023/09/15 14:17:00;;;;;;;1.80;1.70;;;;;;;;;;4978399;28;20592;-88
2023/09/15 14:19:27;;;;;;;3.92;1.80;;;;;;;;;;4972458;28;20209;-88
2023/09/15 14:21:54;;;;;;;4.40;1.80;;;;;;;;;;4973226;28;20588;-88
2023/09/15 14:24:23;;;;;;;1.83;1.73;;;;;;;;;;4975488;28;20208;-90
2023/09/15 14:26:51;;;;;;;1.75;1.65;;;;;;;;;;5043839;28;20233;-89
2023/09/15 14:29:18;;;;;;;1.90;1.80;;;;;;;;;;5037213;28;20300;-88
2023/09/15 14:31:45;;;;;;;1.90;1.80;;;;;;;;;;5059974;28;20216;-92
2023/09/15 14:34:13;;;;;;;1.73;1.63;;;;;;;;;;4991444;28;20212;-87
2023/09/15 14:36:40;;;;;;;2.60;1.70;;;;;;;;;;4990921;28;20240;-92
2023/09/15 14:39:07;;;;;;;3.35;2.00;;;;;;;;;;5051726;28;20200;-89
2023/09/15 14:41:35;;;;;;;4.65;2.10;;;;;;;;;;5008805;28;20231;-90
2023/09/15 14:44:03;;;;;;;3.50;2.50;;;;;;;;;;4982907;28;20528;-89
2023/09/15 14:46:30;;;;;;;3.15;2.00;;;;;;;;;;5032853;28;20232;-90
2023/09/15 14:48:59;;;;;;;1.88;1.77;;;;;;;;;;5073908;28;20219;-89
2023/09/15 14:51:26;;;;;;;4.30;2.15;;;;;;;;;;5076719;28;20634;-90
2023/09/15 14:53:53;;;;;;;2.33;2.00;;;;;;;;;;5045183;28;20209;-90
2023/09/15 14:56:20;;;;;;;1.73;1.60;;;;;;;;;;5046551;28;20229;-91
2023/09/15 14:58:49;;;;;;;3.90;2.30;;;;;;;;;;5077720;28;20200;-89
2023/09/15 15:01:17;;;;;;;2.15;1.95;;;;;;;;;;5003056;28;20239;-90
2023/09/15 15:03:44;;;;;;;2.15;1.98;;;;;;;;;;5021990;28;20229;-92
2023/09/15 15:06:11;;;;;;;4.28;2.00;;;;;;;;;;5014010;28;20670;-88
2023/09/15 15:08:39;;;;;;;2.67;1.80;;;;;;;;;;4988396;28;20749;-91
2023/09/15 15:11:06;;;;;;;3.33;2.10;;;;;;;;;;5028599;28;20730;-92
2023/09/15 15:13:33;;;;;;;1.83;1.73;;;;;;;;;;4977093;28;20205;-91
2023/09/15 15:16:00;;;;;;;3.63;2.22;;;;;;;;;;4983187;28;20554;-90
2023/09/15 15:18:31;;;;;;;2.60;2.10;;;;;;;;;;5021182;28;20227;-91
2023/09/15 15:20:58;;;;;;;3.30;2.10;;;;;;;;;;5048168;28;20225;-91
2023/09/15 15:23:26;;;;;;;2.20;2.00;;;;;;;;;;5050898;28;20236;-92
2023/09/15 15:25:53;;;;;;;2.00;1.85;;;;;;;;;;5062134;28;20233;-88
2023/09/15 15:28:20;;;;;;;2.78;2.38;;;;;;;;;;5076830;28;20210;-90
2023/09/15 15:30:47;;;;;;;3.35;2.40;;;;;;;;;;5060530;28;20707;-88
2023/09/15 15:33:16;;;;;;;2.78;2.05;;;;;;;;;;5017627;28;20207;-88
2023/09/15 15:35:45;;;;;;;2.88;2.20;;;;;;;;;;5057333;28;20239;-88
2023/09/15 15:38:12;;;;;;;2.22;2.08;;;;;;;;;;4981538;28;20726;-87
2023/09/15 15:40:39;;;;;;;2.72;2.33;;;;;;;;;;4990904;28;20232;-88
2023/09/15 15:43:06;;;;;;;2.42;1.80;;;;;;;;;;5009592;28;20233;-87
2023/09/15 15:45:33;;;;;;;2.03;1.92;;;;;;;;;;5002911;28;20232;-88
2023/09/15 15:48:00;;;;;;;2.40;2.20;;;;;;;;;;5012017;28;20220;-87
2023/09/15 15:50:27;;;;;;;2.72;2.20;;;;;;;;;;4985608;28;20239;-88
2023/09/15 15:52:55;;;;;;;2.45;2.25;;;;;;;;;;5075728;28;20198;-87
2023/09/15 15:55:23;;;;;;;2.28;2.17;;;;;;;;;;4978511;28;20236;-87
2023/09/15 15:57:51;;;;;;;2.85;2.33;;;;;;;;;;4967926;28;20221;-88
2023/09/15 16:00:18;;;;;;;2.58;2.38;;;;;;;;;;4990281;28;20333;-88
2023/09/15 16:02:45;;;;;;;2.17;1.98;;;;;;;;;;5002244;28;20229;-88
2023/09/15 16:05:12;;;;;;;3.50;2.15;;;;;;;;;;5074378;28;20229;-88
2023/09/15 16:07:40;;;;;;;2.63;2.30;;;;;;;;;;4988738;28;20233;-87
2023/09/15 16:10:09;;;;;;;3.38;2.35;;;;;;;;;;4974588;28;20665;-87
2023/09/15 16:12:36;;;;;;;2.72;2.53;;;;;;;;;;5059540;28;20206;-87
2023/09/15 16:15:03;;;;;;;3.92;2.25;;;;;;;;;;5006746;28;20235;-87
2023/09/15 16:17:30;;;;;;;3.35;2.40;;;;;;;;;;5005585;28;20227;-87
2023/09/15 16:20:01;;;;;;;3.00;2.40;;;;;;;;;;5000132;28;20222;-87
2023/09/15 16:22:28;;;;;;;2.38;2.17;;;;;;;;;;4999193;28;20205;-87
2023/09/15 16:24:55;;;;;;;2.25;2.08;;;;;;;;;;5074555;28;20275;-87
2023/09/15 16:27:24;;;;;;;4.18;2.15;;;;;;;;;;5038688;28;20282;-88
2023/09/15 16:29:51;;;;;;;5.85;2.40;;;;;;;;;;5034671;28;20252;-88